createdAt,value
2023-01-12T01:45:12.450Z,96870.22
2023-01-12T01:48:02.451Z,96862.97
2023-01-12T01:51:08.202Z,96838.72
2023-01-12T01:55:15.209Z,96862.94
2023-01-12T01:58:11.173Z,96859.38
2023-01-12T02:00:42.273Z,96859.19
2023-01-12T02:03:12.106Z,96866.78
2023-01-12T02:05:44.841Z,96859.56
2023-01-12T02:08:23.093Z,96857.69
2023-01-12T02:10:53.284Z,96839.03
2023-01-12T02:13:42.612Z,96847.75
2023-01-12T02:16:23.336Z,96829.03
2023-01-12T02:19:04.605Z,96843.13
2023-01-12T02:21:59.186Z,96826.97
2023-01-12T02:26:13.463Z,96846.44
2023-01-12T02:29:42.763Z,96834.41
2023-01-12T02:32:20.361Z,96824.66
2023-01-12T02:35:02.557Z,96837.50
2023-01-12T02:37:44.216Z,96837.72
2023-01-12T02:40:23.886Z,96851.31
2023-01-12T02:43:04.973Z,96843.03
2023-01-12T02:45:42.907Z,96846.34
2023-01-12T02:48:22.262Z,96833.72
2023-01-12T02:50:55.394Z,96845.06
2023-01-12T02:53:31.899Z,96856.28
2023-01-12T02:56:03.802Z,96852.50
2023-01-12T02:58:37.367Z,96853.13
2023-01-12T03:01:09.578Z,96857.72
2023-01-12T03:03:40.204Z,96844.91
2023-01-12T03:06:10.006Z,96857.34
2023-01-12T03:08:41.224Z,96832.91
2023-01-12T03:11:15.753Z,96845.78
2023-01-12T03:13:48.719Z,96843.66
2023-01-12T03:16:38.590Z,96849.66
2023-01-12T03:19:11.306Z,96838.72
2023-01-12T03:21:44.020Z,96838.09
2023-01-12T03:24:41.815Z,96828.59
2023-01-12T03:30:55.561Z,96825.88
2023-01-12T03:33:47.258Z,96826.31
2023-01-12T03:36:55.297Z,96831.88
2023-01-12T03:39:28.580Z,96826.94
2023-01-12T03:42:03.944Z,96824.25
2023-01-12T03:44:40.372Z,96818.88
2023-01-12T03:47:17.526Z,96805.78
2023-01-12T03:49:49.304Z,96815.69
2023-01-12T03:52:20.486Z,96791.66
2023-01-12T03:54:50.932Z,96807.84
2023-01-12T03:57:20.738Z,96801.44
2023-01-12T03:59:49.715Z,96790.28
2023-01-12T04:02:18.642Z,96800.59
2023-01-12T04:04:46.975Z,96804.28
2023-01-12T04:07:15.711Z,96801.34
2023-01-12T04:09:45.381Z,96805.28
2023-01-12T04:12:13.724Z,96804.44
2023-01-12T04:14:47.588Z,96808.16
2023-01-12T04:17:17.821Z,96810.03
2023-01-12T04:23:08.876Z,96805.63
2023-01-12T04:25:38.617Z,96798.56
2023-01-12T04:28:08.531Z,96796.25
2023-01-12T04:30:36.879Z,96808.59
2023-01-12T04:33:09.759Z,96790.56
2023-01-12T04:35:38.123Z,96810.78
2023-01-12T04:38:07.490Z,96799.59
2023-01-12T04:40:36.167Z,96798.34
2023-01-12T04:43:08.899Z,96798.31
2023-01-12T04:45:48.901Z,96795.75
2023-01-12T04:48:34.714Z,96794.31
2023-01-12T04:54:01.884Z,96781.84
2023-01-12T04:56:31.339Z,96783.13
2023-01-12T04:59:02.864Z,96766.81
2023-01-12T05:01:32.296Z,96772.59
2023-01-12T05:04:01.439Z,96761.59
2023-01-12T05:06:30.199Z,96761.81
2023-01-12T05:09:17.958Z,96755.75
2023-01-12T05:11:48.254Z,96780.38
2023-01-12T05:14:18.469Z,96775.78
2023-01-12T05:16:46.914Z,96802.66
2023-01-12T05:19:16.127Z,96801.84
2023-01-12T05:21:44.629Z,96800.38
2023-01-12T05:24:13.249Z,96793.78
2023-01-12T05:26:41.620Z,96797.09
2023-01-12T05:29:13.051Z,96783.19
2023-01-12T05:31:42.730Z,96791.72
2023-01-12T05:34:11.989Z,96794.19
2023-01-12T05:36:40.962Z,96790.47
2023-01-12T05:42:32.382Z,96790.91
2023-01-12T05:45:02.383Z,96800.81
2023-01-12T05:47:37.427Z,96785.38
2023-01-12T05:50:36.863Z,96755.50
2023-01-12T05:53:20.821Z,96759.41
2023-01-12T05:56:29.074Z,96771.66
2023-01-12T05:59:06.928Z,96768.28
2023-01-12T06:01:35.340Z,96769.94
2023-01-12T06:04:05.721Z,96775.66
2023-01-12T06:06:35.483Z,96766.16
2023-01-12T06:09:04.403Z,96764.75
2023-01-12T06:11:50.872Z,96759.56
2023-01-12T06:14:19.340Z,96777.50
2023-01-12T06:16:48.864Z,96781.81
2023-01-12T06:19:19.049Z,96776.69
2023-01-12T06:21:55.319Z,96777.34
2023-01-12T06:24:34.378Z,96776.88
2023-01-12T06:27:07.798Z,96730.63
2023-01-12T06:29:48.854Z,96768.00
2023-01-12T06:32:31.600Z,96761.19
2023-01-12T06:35:19.853Z,96763.66
2023-01-12T06:38:00.340Z,96749.81
2023-01-12T06:40:58.072Z,96765.31
2023-01-12T06:43:27.184Z,96748.09
2023-01-12T06:46:06.075Z,96766.72
2023-01-12T06:48:39.628Z,96771.66
2023-01-12T06:54:32.538Z,96780.44
2023-01-12T06:57:22.933Z,96785.81
2023-01-12T07:00:02.037Z,96783.97
2023-01-12T07:02:33.377Z,96747.09
2023-01-12T07:05:02.141Z,96778.88
2023-01-12T07:07:31.952Z,96777.41
2023-01-12T07:10:01.885Z,96785.88
2023-01-12T07:12:30.677Z,96786.09
2023-01-12T07:14:59.743Z,96786.44
2023-01-12T07:17:28.129Z,96781.09
2023-01-12T07:19:57.042Z,96780.25
2023-01-12T07:22:26.468Z,96776.38
2023-01-12T07:24:57.782Z,96767.13
2023-01-12T07:27:27.515Z,96775.44
2023-01-12T07:29:55.889Z,96772.75
2023-01-12T07:32:26.777Z,96759.53
2023-01-12T07:34:55.764Z,96767.31
2023-01-12T07:37:24.150Z,96772.22
2023-01-12T07:39:53.513Z,96768.50
2023-01-12T07:42:25.825Z,96755.75
2023-01-12T07:44:54.836Z,96750.41
2023-01-12T07:47:23.240Z,96746.28
2023-01-12T07:49:52.537Z,96757.41
2023-01-12T07:52:20.861Z,96750.41
2023-01-12T07:54:49.906Z,96741.66
2023-01-12T07:57:19.564Z,96756.19
2023-01-12T08:00:10.638Z,96758.94
2023-01-12T08:02:56.827Z,96750.28
2023-01-12T08:05:26.640Z,96753.84
2023-01-12T08:07:56.015Z,96751.78
2023-01-12T08:10:25.446Z,96743.53
2023-01-12T08:12:54.607Z,96755.81
2023-01-12T08:15:28.228Z,96762.44
2023-01-12T08:18:00.845Z,96761.41
2023-01-12T08:20:35.360Z,96753.56
2023-01-12T08:23:09.117Z,96752.31
2023-01-12T08:25:45.496Z,96759.53
2023-01-12T08:28:18.462Z,96746.34
2023-01-12T08:30:50.429Z,96749.06
2023-01-12T08:33:19.477Z,96766.44
2023-01-12T08:35:49.312Z,96745.72
2023-01-12T08:38:19.228Z,96764.59
2023-01-12T08:41:18.445Z,96748.88
2023-01-12T08:44:06.443Z,96753.25
2023-01-12T08:46:37.811Z,96756.19
2023-01-12T08:49:12.342Z,96745.66
2023-01-12T08:51:46.117Z,96744.25
2023-01-12T08:54:18.460Z,96746.97
2023-01-12T08:56:47.274Z,96745.88
2023-01-12T08:59:20.070Z,96758.09
2023-01-12T09:01:50.577Z,96751.31
2023-01-12T09:05:15.492Z,96748.88
2023-01-12T09:08:11.933Z,96746.81
2023-01-12T09:10:41.473Z,96737.56
2023-01-12T09:13:12.342Z,96741.50
2023-01-12T09:15:41.172Z,96734.50
2023-01-12T09:18:12.478Z,96736.81
2023-01-12T09:20:40.864Z,96735.59
2023-01-12T09:23:09.977Z,96741.81
2023-01-12T09:25:38.657Z,96741.84
2023-01-12T09:28:06.977Z,96723.22
2023-01-12T09:30:36.051Z,96734.81
2023-01-12T09:33:04.495Z,96733.25
2023-01-12T09:35:34.900Z,96733.66
2023-01-12T09:38:03.223Z,96733.31
2023-01-12T09:40:32.282Z,96732.88
2023-01-12T09:43:18.358Z,96737.25
2023-01-12T09:46:05.143Z,96726.28
2023-01-12T09:48:34.951Z,96741.00
2023-01-12T09:51:11.813Z,96735.41
2023-01-12T09:53:42.649Z,96723.63
2023-01-12T09:56:19.393Z,96733.34
2023-01-12T09:59:16.036Z,96717.19
2023-01-12T10:02:05.659Z,96713.47
2023-01-12T10:05:38.574Z,96711.00
2023-01-12T10:13:20.347Z,96693.19
2023-01-12T10:16:59.527Z,96679.94
2023-01-12T10:32:56.046Z,96701.94
2023-01-12T10:39:48.950Z,96692.63
2023-01-12T12:28:07.469Z,96580.97
2023-01-12T12:31:48.917Z,96570.53
2023-01-12T12:44:13.237Z,96574.16
2023-01-12T12:51:13.026Z,96564.84
2023-01-12T12:53:55.969Z,96575.88
2023-01-12T12:56:26.143Z,96569.50
2023-01-12T12:58:55.816Z,96567.78
2023-01-12T13:01:58.610Z,96566.41
2023-01-12T13:07:59.923Z,96552.94
2023-01-12T13:10:31.750Z,96558.91
2023-01-12T13:13:04.485Z,96565.06
2023-01-12T13:15:37.060Z,96538.38
2023-01-12T13:18:07.486Z,96563.69
2023-01-12T13:20:50.485Z,96567.22
2023-01-12T13:23:48.806Z,96557.06
2023-01-12T13:26:44.189Z,96556.34
2023-01-12T13:29:44.535Z,96556.13
2023-01-12T13:32:57.376Z,96547.19
2023-01-12T13:35:56.026Z,96535.00
2023-01-12T13:38:43.817Z,96549.00
2023-01-12T13:41:44.678Z,96545.25
2023-01-12T13:44:21.868Z,96544.16
2023-01-12T13:46:52.413Z,96533.50
2023-01-12T13:49:28.393Z,96531.66
2023-01-12T13:52:02.823Z,96543.81
2023-01-12T13:54:31.552Z,96520.41
2023-01-12T13:57:04.107Z,96532.97
2023-01-12T13:59:33.195Z,96533.88
2023-01-12T14:02:03.252Z,96516.31
2023-01-12T14:04:57.781Z,96531.88
2023-01-12T14:07:40.752Z,96530.44
2023-01-12T14:10:24.108Z,96517.84
2023-01-12T14:13:14.299Z,96537.81
2023-01-12T14:16:01.911Z,96523.66
2023-01-12T14:18:42.573Z,96527.63
2023-01-12T14:21:26.041Z,96519.06
2023-01-12T14:23:55.672Z,96532.84
2023-01-12T14:26:42.721Z,96530.25
2023-01-12T14:29:23.490Z,96519.41
2023-01-12T14:31:58.596Z,96520.97
2023-01-12T14:34:38.980Z,96520.97
2023-01-12T14:37:39.833Z,96514.59
2023-01-12T14:40:33.649Z,96500.81
2023-01-12T14:43:24.547Z,96521.63
2023-01-12T14:46:30.093Z,96504.47
2023-01-12T14:49:08.446Z,96511.25
2023-01-12T14:51:43.863Z,96504.19
2023-01-12T14:54:27.652Z,96521.25
2023-01-12T14:57:04.547Z,96511.81
2023-01-12T15:12:37.914Z,96517.78
2023-01-12T15:15:22.453Z,96519.34
2023-01-12T15:18:11.374Z,96516.91
2023-01-12T15:25:05.894Z,96527.69
2023-01-12T15:27:35.965Z,96467.50
2023-01-12T15:30:05.740Z,96524.25
2023-01-12T15:39:32.057Z,96538.38
2023-01-12T15:42:20.060Z,96509.56
2023-01-12T15:44:52.384Z,96496.31
2023-01-12T16:00:28.540Z,96437.22
2023-01-12T16:26:16.953Z,96471.28
2023-01-12T16:51:50.491Z,96451.34
2023-01-12T16:55:05.969Z,96416.50
2023-01-12T16:58:13.592Z,96487.41
2023-01-12T17:09:17.944Z,96399.09
2023-01-12T17:15:01.099Z,96431.25
2023-01-12T17:17:59.951Z,96414.63
2023-01-12T17:20:52.122Z,96420.59
2023-01-12T17:24:01.965Z,96469.19
2023-01-12T17:30:55.343Z,96469.94
2023-01-12T17:33:29.472Z,96440.22
2023-01-12T17:53:24.035Z,96463.03
2023-01-12T17:55:53.299Z,96459.88
2023-01-12T17:58:33.226Z,96460.84
2023-01-12T18:01:21.349Z,96463.56
2023-01-12T18:03:51.034Z,96439.03
2023-01-12T18:14:29.388Z,96437.31
2023-01-12T18:17:20.914Z,96451.28
2023-01-12T18:19:57.464Z,96456.69
2023-01-12T18:22:31.942Z,96414.84
2023-01-12T18:25:02.213Z,96445.28
2023-01-12T18:27:31.812Z,96412.16
2023-01-12T18:31:16.249Z,96448.44
2023-01-12T18:34:18.780Z,96420.00
2023-01-12T18:36:48.023Z,96440.16
2023-01-12T18:39:20.480Z,96439.75
2023-01-12T18:42:09.032Z,96359.53
2023-01-12T18:45:36.833Z,96429.56
2023-01-12T18:48:28.050Z,96414.03
2023-01-12T18:51:25.825Z,96418.19
2023-01-12T18:54:07.190Z,96424.59
2023-01-12T18:57:07.551Z,96420.47
2023-01-12T18:59:57.472Z,96416.72
2023-01-12T19:02:39.143Z,96417.78
2023-01-12T19:06:35.141Z,96402.88
2023-01-12T19:13:35.181Z,96384.50
2023-01-12T19:23:41.614Z,96397.25
2023-01-12T19:27:25.820Z,96398.53
2023-01-12T19:38:56.359Z,96388.41
2023-01-12T19:54:02.403Z,96365.34
2023-01-12T19:57:20.641Z,96340.41
2023-01-12T20:05:07.359Z,96350.56
2023-01-12T20:11:25.447Z,96353.63
2023-01-12T20:24:38.018Z,96341.41
2023-01-12T20:28:05.597Z,96360.97
2023-01-12T23:04:26.551Z,96237.66
2023-01-12T23:08:03.300Z,96276.97
2023-01-12T23:18:48.586Z,96305.13
2023-01-12T23:38:00.889Z,96268.00
